Terminal Aerodrome Forecast
Issued by NWS

Home | Current Version | Previous Version | Text Only | Print | Product List | Glossary On
Versions: 1 2 3 4 5 6 7 8 9 10 11 12
268
FTUS43 KFGF 301720
TAFTVF
TAF
KTVF 301720Z 3018/0118 06016G26KT P6SM SKC
     FM010000 04011KT P6SM SKC
     FM010300 04007KT P6SM SKC
     FM011000 VRB03KT P6SM SKC
      AMD LTD TO CLD VIS AND WIND=

USA.gov is the U.S. government's official web portal to all federal, state and local government web resources and services.